Time;durP1;ratioP1;P1;durP2;ratioP2;P2;SDS_P1;SDS_P2;PMS_P1;PMS_P2;Temp;Humidity;BMP_temperature;BMP_pressure;BME280_temperature;BME280_humidity;BME280_pressure;Samples;Min_cycle;Max_cycle;Signal;HPM_P1;HPM_P2
2023/03/21 00:01:51;;;;;;;;;;;;;;;;;;4240346;27;20370;-38
2023/03/21 00:03:52;;;;;;;;;;;;;;;;;;4247806;27;20005;-38
2023/03/21 00:05:53;;;;;;;;;;;;;;;;;;4234816;27;19923;-38
2023/03/21 00:07:53;;;;;;;;;;;;;;;;;;4230849;28;20286;-38
2023/03/21 00:09:54;;;;;;;;;;;;;;;;;;4232161;28;20332;-38
2023/03/21 00:11:55;;;;;;;;;;;;;;;;;;4242242;27;19974;-37
2023/03/21 00:14:01;;;;;;;;;;;;;;;;;;4249217;27;19968;-38
2023/03/21 00:16:02;;;;;;;;;;;;;;;;;;4248924;27;19919;-38
2023/03/21 00:18:10;;;;;;;;;;;;;;;;;;4241525;27;20112;-38
2023/03/21 00:20:13;;;;;;;;;;;;;;;;;;4242656;27;19926;-38
2023/03/21 00:22:15;;;;;;;;;;;;;;;;;;4247960;27;20319;-38
2023/03/21 00:24:16;;;;;;;;;;;;;;;;;;4217385;28;19920;-38
2023/03/21 00:26:17;;;;;;;;;;;;;;;;;;4248469;27;20336;-38
2023/03/21 00:28:18;;;;;;;;;;;;;;;;;;4248800;27;19923;-37
2023/03/21 00:30:19;;;;;;;;;;;;;;;;;;4217577;28;19915;-37
2023/03/21 00:32:24;;;;;;;;;;;;;;;;;;4234140;27;20366;-37
2023/03/21 00:34:25;;;;;;;;;;;;;;;;;;4230692;28;19927;-37
2023/03/21 00:36:26;;;;;;;;;;;;;;;;;;4239029;27;20332;-37
2023/03/21 00:38:27;;;;;;;;;;;;;;;;;;4244169;27;19923;-38
2023/03/21 00:40:28;;;;;;;;;;;;;;;;;;4246422;27;19992;-37
2023/03/21 00:42:29;;;;;;;;;;;;;;;;;;4236274;27;19915;-37
2023/03/21 00:44:35;;;;;;;;;;;;;;;;;;4248459;27;19915;-37
2023/03/21 00:46:36;;;;;;;;;;;;;;;;;;4230006;28;19919;-42
2023/03/21 00:48:37;;;;;;;;;;;;;;;;;;4231077;27;19916;-37
2023/03/21 00:50:39;;;;;;;;;;;;;;;;;;4230190;28;20394;-38
2023/03/21 00:52:40;;;;;;;;;;;;;;;;;;4248432;27;19941;-37
2023/03/21 00:54:41;;;;;;;;;;;;;;;;;;4248456;27;20285;-38
2023/03/21 00:56:42;;;;;;;;;;;;;;;;;;4237914;27;20443;-38
2023/03/21 00:58:44;;;;;;;;;;;;;;;;;;4226602;28;20326;-38
2023/03/21 01:00:48;;;;;;;;;;;;;;;;;;4237890;27;19915;-38
2023/03/21 01:02:55;;;;;;;;;;;;;;;;;;4202416;28;19962;-38
2023/03/21 01:04:56;;;;;;;;;;;;;;;;;;4245416;27;19967;-38
2023/03/21 01:06:57;;;;;;;;;;;;;;;;;;4247975;27;20223;-38
2023/03/21 01:08:58;;;;;;;;;;;;;;;;;;4247986;27;19965;-38
2023/03/21 01:10:59;;;;;;;;;;;;;;;;;;4237513;27;19916;-38
2023/03/21 01:13:00;;;;;;;;;;;;;;;;;;4244185;27;19944;-38
2023/03/21 01:15:04;;;;;;;;;;;;;;;;;;4233710;27;20470;-38
2023/03/21 01:17:05;;;;;;;;;;;;;;;;;;4247266;27;19915;-38
2023/03/21 01:19:06;;;;;;;;;;;;;;;;;;4247789;27;19960;-39
2023/03/21 01:21:07;;;;;;;;;;;;;;;;;;4247608;27;20284;-38
2023/03/21 01:23:08;;;;;;;;;;;;;;;;;;4227992;28;20005;-38
2023/03/21 01:25:10;;;;;;;;;;;;;;;;;;4230632;27;20340;-39
2023/03/21 01:27:11;;;;;;;;;;;;;;;;;;4212777;28;19996;-38
2023/03/21 01:29:12;;;;;;;;;;;;;;;;;;4207072;28;20017;-38
2023/03/21 01:31:12;;;;;;;;;;;;;;;;;;4225964;28;19958;-38
2023/03/21 01:33:14;;;;;;;;;;;;;;;;;;4230703;28;19915;-38
2023/03/21 01:35:15;;;;;;;;;;;;;;;;;;4237649;27;20439;-38
2023/03/21 01:37:18;;;;;;;;;;;;;;;;;;4247510;27;19915;-38
2023/03/21 01:39:22;;;;;;;;;;;;;;;;;;4229252;28;20357;-38
2023/03/21 01:41:24;;;;;;;;;;;;;;;;;;4232631;27;19968;-42
2023/03/21 01:43:26;;;;;;;;;;;;;;;;;;4241003;27;20380;-39
2023/03/21 01:45:27;;;;;;;;;;;;;;;;;;4212539;28;19939;-38
2023/03/21 01:47:28;;;;;;;;;;;;;;;;;;4212179;28;19916;-38
2023/03/21 01:49:49;;;;;;;;;;;;;;;;;;4223143;28;19916;-39
2023/03/21 01:51:54;;;;;;;;;;;;;;;;;;4239162;27;19915;-38
2023/03/21 01:53:55;;;;;;;;;;;;;;;;;;4229454;28;19919;-38
2023/03/21 01:55:56;;;;;;;;;;;;;;;;;;4227649;28;20276;-38
2023/03/21 01:58:11;;;;;;;;;;;;;;;;;;4212206;28;19916;-38
2023/03/21 02:00:35;;;;;;;;;;;;;;;;;;4212319;28;20353;-38
2023/03/21 02:02:50;;;;;;;;;;;;;;;;;;4228626;28;19916;-38
2023/03/21 02:05:10;;;;;;;;;;;;;;;;;;4240472;27;19960;-38
2023/03/21 02:07:11;;;;;;;;;;;;;;;;;;4234126;27;19926;-38
2023/03/21 02:09:17;;;;;;;;;;;;;;;;;;4212239;28;19916;-39
2023/03/21 02:11:20;;;;;;;;;;;;;;;;;;4212192;28;19970;-38
2023/03/21 02:13:21;;;;;;;;;;;;;;;;;;4221491;28;20371;-40
2023/03/21 02:15:22;;;;;;;;;;;;;;;;;;4224691;28;20220;-38
2023/03/21 02:17:34;;;;;;;;;;;;;;;;;;4228554;28;19915;-39
2023/03/21 02:19:36;;;;;;;;;;;;;;;;;;4212527;28;19919;-38
2023/03/21 02:21:37;;;;;;;;;;;;;;;;;;4221871;28;19931;-38
2023/03/21 02:23:40;;;;;;;;;;;;;;;;;;4215436;28;19915;-38
2023/03/21 02:25:42;;;;;;;;;;;;;;;;;;4232584;28;21652;-39
2023/03/21 02:27:43;;;;;;;;;;;;;;;;;;4245667;28;19915;-39
2023/03/21 02:29:44;;;;;;;;;;;;;;;;;;4228682;28;20014;-39
2023/03/21 02:31:45;;;;;;;;;;;;;;;;;;4234177;28;19961;-39
2023/03/21 02:33:46;;;;;;;;;;;;;;;;;;4242396;28;19919;-39
2023/03/21 02:35:48;;;;;;;;;;;;;;;;;;4229810;28;19964;-38
2023/03/21 02:37:49;;;;;;;;;;;;;;;;;;4211850;28;19920;-39
2023/03/21 02:39:50;;;;;;;;;;;;;;;;;;4228688;28;20022;-38
2023/03/21 02:41:51;;;;;;;;;;;;;;;;;;4225982;28;19931;-39
2023/03/21 02:44:03;;;;;;;;;;;;;;;;;;4223698;28;19946;-39
2023/03/21 02:46:04;;;;;;;;;;;;;;;;;;4220424;28;19949;-38
2023/03/21 02:48:06;;;;;;;;;;;;;;;;;;4228325;28;19923;-39
2023/03/21 02:50:08;;;;;;;;;;;;;;;;;;4226823;28;19924;-38
2023/03/21 02:52:10;;;;;;;;;;;;;;;;;;4228605;28;19938;-39
2023/03/21 02:54:11;;;;;;;;;;;;;;;;;;4221049;28;19919;-38
2023/03/21 02:56:14;;;;;;;;;;;;;;;;;;4234707;28;20274;-38
2023/03/21 02:58:18;;;;;;;;;;;;;;;;;;4240103;28;19919;-38
2023/03/21 03:00:24;;;;;;;;;;;;;;;;;;4224038;28;19920;-38
2023/03/21 03:02:25;;;;;;;;;;;;;;;;;;4219233;28;19980;-38
2023/03/21 03:04:26;;;;;;;;;;;;;;;;;;4235039;28;19920;-39
2023/03/21 03:06:28;;;;;;;;;;;;;;;;;;4242072;28;19923;-38
2023/03/21 03:08:29;;;;;;;;;;;;;;;;;;4246300;28;19922;-38
2023/03/21 03:10:30;;;;;;;;;;;;;;;;;;4228556;28;20432;-39
2023/03/21 03:12:32;;;;;;;;;;;;;;;;;;4228165;28;20388;-39
2023/03/21 03:14:33;;;;;;;;;;;;;;;;;;4233415;28;20279;-38
2023/03/21 03:16:35;;;;;;;;;;;;;;;;;;4227136;28;19970;-38
2023/03/21 03:18:36;;;;;;;;;;;;;;;;;;4228606;28;19919;-38
2023/03/21 03:20:37;;;;;;;;;;;;;;;;;;4246539;28;20267;-38
2023/03/21 03:22:39;;;;;;;;;;;;;;;;;;4245591;28;19964;-38
2023/03/21 03:24:40;;;;;;;;;;;;;;;;;;4228197;28;19941;-38
2023/03/21 03:26:41;;;;;;;;;;;;;;;;;;4246375;28;20392;-38
2023/03/21 03:28:42;;;;;;;;;;;;;;;;;;4211610;28;19951;-38
2023/03/21 03:30:48;;;;;;;;;;;;;;;;;;4216703;28;19920;-39
2023/03/21 03:32:50;;;;;;;;;;;;;;;;;;4226142;28;20008;-38
2023/03/21 03:34:55;;;;;;;;;;;;;;;;;;4237186;27;20413;-38
2023/03/21 03:36:55;;;;;;;;;;;;;;;;;;4223516;28;19923;-38
2023/03/21 03:38:56;;;;;;;;;;;;;;;;;;4231267;28;19927;-38
2023/03/21 03:40:57;;;;;;;;;;;;;;;;;;4235451;27;19920;-38
2023/03/21 03:43:09;;;;;;;;;;;;;;;;;;4248284;27;19919;-39
2023/03/21 03:45:12;;;;;;;;;;;;;;;;;;4231312;28;19980;-38
2023/03/21 03:47:13;;;;;;;;;;;;;;;;;;4249190;27;19915;-38
2023/03/21 03:49:15;;;;;;;;;;;;;;;;;;4247917;27;19918;-38
2023/03/21 03:51:17;;;;;;;;;;;;;;;;;;4247875;27;19915;-39
2023/03/21 03:53:35;;;;;;;;;;;;;;;;;;4248129;27;20325;-38
2023/03/21 03:55:37;;;;;;;;;;;;;;;;;;4218417;27;20418;-39
2023/03/21 03:57:44;;;;;;;;;;;;;;;;;;4230986;27;19915;-39
2023/03/21 03:59:45;;;;;;;;;;;;;;;;;;4248014;27;20030;-39
2023/03/21 04:01:58;;;;;;;;;;;;;;;;;;4230401;28;19960;-39
2023/03/21 04:03:59;;;;;;;;;;;;;;;;;;4248800;27;20331;-39
2023/03/21 04:06:00;;;;;;;;;;;;;;;;;;4209937;28;20287;-40
2023/03/21 04:08:01;;;;;;;;;;;;;;;;;;4239658;27;19919;-39
2023/03/21 04:10:10;;;;;;;;;;;;;;;;;;4247850;27;20394;-39
2023/03/21 04:12:15;;;;;;;;;;;;;;;;;;4247017;27;19919;-39
2023/03/21 04:14:27;;;;;;;;;;;;;;;;;;4224341;28;19920;-39
2023/03/21 04:16:30;;;;;;;;;;;;;;;;;;4222835;28;19919;-39
2023/03/21 04:18:32;;;;;;;;;;;;;;;;;;4226917;28;19924;-39
2023/03/21 04:20:33;;;;;;;;;;;;;;;;;;4230451;28;19916;-39
2023/03/21 04:22:34;;;;;;;;;;;;;;;;;;4213683;28;20049;-39
2023/03/21 04:24:36;;;;;;;;;;;;;;;;;;4239268;27;19984;-39
2023/03/21 04:26:38;;;;;;;;;;;;;;;;;;4248518;27;19949;-39
2023/03/21 04:29:19;;;;;;;;;;;;;;;;;;4221190;28;19919;-39
2023/03/21 04:31:53;;;;;;;;;;;;;;;;;;4227439;28;20013;-39
2023/03/21 04:33:54;;;;;;;;;;;;;;;;;;4248582;27;19915;-38
2023/03/21 04:35:57;;;;;;;;;;;;;;;;;;4230488;28;19916;-39
2023/03/21 04:37:59;;;;;;;;;;;;;;;;;;4230312;28;19942;-39
2023/03/21 04:40:05;;;;;;;;;;;;;;;;;;4233090;27;20378;-37
2023/03/21 04:42:06;;;;;;;;;;;;;;;;;;4213617;28;19985;-37
2023/03/21 04:44:07;;;;;;;;;;;;;;;;;;4238514;27;19972;-38
2023/03/21 04:46:08;;;;;;;;;;;;;;;;;;4246331;27;19915;-38
2023/03/21 04:48:10;;;;;;;;;;;;;;;;;;4247051;27;19915;-38
2023/03/21 04:50:12;;;;;;;;;;;;;;;;;;4246928;27;19923;-38
2023/03/21 04:52:14;;;;;;;;;;;;;;;;;;4223861;28;20297;-38
2023/03/21 04:54:15;;;;;;;;;;;;;;;;;;4240902;27;19915;-38
2023/03/21 04:56:16;;;;;;;;;;;;;;;;;;4241674;27;19919;-38
2023/03/21 04:58:19;;;;;;;;;;;;;;;;;;4226612;28;19915;-38
2023/03/21 05:00:20;;;;;;;;;;;;;;;;;;4226477;28;19920;-39
2023/03/21 05:02:21;;;;;;;;;;;;;;;;;;4229708;28;19919;-39
2023/03/21 05:04:22;;;;;;;;;;;;;;;;;;4231240;28;20379;-39
2023/03/21 05:06:23;;;;;;;;;;;;;;;;;;4227354;28;19991;-39
2023/03/21 05:08:25;;;;;;;;;;;;;;;;;;4225685;28;19916;-39
2023/03/21 05:10:26;;;;;;;;;;;;;;;;;;4231436;28;19965;-38
2023/03/21 05:12:27;;;;;;;;;;;;;;;;;;4223301;28;19923;-39
2023/03/21 05:14:28;;;;;;;;;;;;;;;;;;4234238;27;19966;-38
2023/03/21 05:16:29;;;;;;;;;;;;;;;;;;4212221;28;20333;-38
2023/03/21 05:18:33;;;;;;;;;;;;;;;;;;4217347;28;19924;-38
2023/03/21 05:20:43;;;;;;;;;;;;;;;;;;4229701;28;19919;-39
2023/03/21 05:22:45;;;;;;;;;;;;;;;;;;4226848;28;19916;-39
2023/03/21 05:24:49;;;;;;;;;;;;;;;;;;4216630;28;19922;-38
2023/03/21 05:27:00;;;;;;;;;;;;;;;;;;4229391;28;19953;-38
2023/03/21 05:29:02;;;;;;;;;;;;;;;;;;4231180;28;19916;-41
2023/03/21 05:31:03;;;;;;;;;;;;;;;;;;4226600;28;19920;-38
2023/03/21 05:33:04;;;;;;;;;;;;;;;;;;4212204;28;19916;-38
2023/03/21 05:35:05;;;;;;;;;;;;;;;;;;4239355;27;19921;-38
2023/03/21 05:37:07;;;;;;;;;;;;;;;;;;4246241;27;19919;-37
2023/03/21 05:39:20;;;;;;;;;;;;;;;;;;4213368;28;19924;-41
2023/03/21 05:41:33;;;;;;;;;;;;;;;;;;4219037;28;20444;-39
2023/03/21 05:43:38;;;;;;;;;;;;;;;;;;4229464;28;19920;-38
2023/03/21 05:45:39;;;;;;;;;;;;;;;;;;4246520;27;19969;-38
2023/03/21 05:47:40;;;;;;;;;;;;;;;;;;4225753;28;19953;-40
2023/03/21 05:49:41;;;;;;;;;;;;;;;;;;4218494;28;19919;-39
2023/03/21 05:51:44;;;;;;;;;;;;;;;;;;4229187;28;19916;-39
2023/03/21 05:53:47;;;;;;;;;;;;;;;;;;4228428;28;19927;-37
2023/03/21 05:55:49;;;;;;;;;;;;;;;;;;4230366;28;19922;-37
2023/03/21 05:58:06;;;;;;;;;;;;;;;;;;4212366;28;19966;-38
2023/03/21 06:00:08;;;;;;;;;;;;;;;;;;4210971;28;19916;-38
2023/03/21 06:02:18;;;;;;;;;;;;;;;;;;4231623;27;19915;-38
2023/03/21 06:04:20;;;;;;;;;;;;;;;;;;4210376;28;19916;-39
2023/03/21 06:06:21;;;;;;;;;;;;;;;;;;4226620;28;20436;-39
2023/03/21 06:08:27;;;;;;;;;;;;;;;;;;4226905;28;19923;-38
2023/03/21 06:10:29;;;;;;;;;;;;;;;;;;4226422;28;20310;-38
2023/03/21 06:12:31;;;;;;;;;;;;;;;;;;4214169;28;19946;-39
2023/03/21 06:14:32;;;;;;;;;;;;;;;;;;4228416;28;20427;-39
2023/03/21 06:16:49;;;;;;;;;;;;;;;;;;4227544;28;19927;-40
2023/03/21 06:18:51;;;;;;;;;;;;;;;;;;4223405;28;19920;-39
2023/03/21 06:21:12;;;;;;;;;;;;;;;;;;4218433;28;19920;-38
2023/03/21 06:23:14;;;;;;;;;;;;;;;;;;4226948;28;20398;-40
2023/03/21 06:25:15;;;;;;;;;;;;;;;;;;4212242;28;19920;-39
2023/03/21 06:27:17;;;;;;;;;;;;;;;;;;4226602;28;19975;-40
2023/03/21 06:29:24;;;;;;;;;;;;;;;;;;4218336;28;19942;-38
2023/03/21 06:31:26;;;;;;;;;;;;;;;;;;4221280;28;20378;-38
2023/03/21 06:33:33;;;;;;;;;;;;;;;;;;4223431;28;19920;-46
2023/03/21 06:35:34;;;;;;;;;;;;;;;;;;4209589;28;20403;-38
2023/03/21 06:37:36;;;;;;;;;;;;;;;;;;4232010;28;19915;-38
2023/03/21 06:39:37;;;;;;;;;;;;;;;;;;4226446;28;19923;-39
2023/03/21 06:41:38;;;;;;;;;;;;;;;;;;4199340;28;19988;-38
2023/03/21 06:43:39;;;;;;;;;;;;;;;;;;4234762;28;19919;-39
2023/03/21 06:45:40;;;;;;;;;;;;;;;;;;4233132;28;19996;-38
2023/03/21 06:47:44;;;;;;;;;;;;;;;;;;4212191;28;19924;-39
2023/03/21 06:49:54;;;;;;;;;;;;;;;;;;4215979;28;19941;-39
2023/03/21 06:51:54;;;;;;;;;;;;;;;;;;4218569;28;19916;-40
2023/03/21 06:53:56;;;;;;;;;;;;;;;;;;4214904;28;19923;-39
2023/03/21 06:56:08;;;;;;;;;;;;;;;;;;4217898;28;19916;-39
2023/03/21 06:58:10;;;;;;;;;;;;;;;;;;4209513;28;19926;-39
2023/03/21 07:00:11;;;;;;;;;;;;;;;;;;4224398;28;20401;-39
2023/03/21 07:02:17;;;;;;;;;;;;;;;;;;4213266;28;19924;-39
2023/03/21 07:04:25;;;;;;;;;;;;;;;;;;4219191;28;20055;-39
2023/03/21 07:06:29;;;;;;;;;;;;;;;;;;4215648;28;20394;-41
2023/03/21 07:08:30;;;;;;;;;;;;;;;;;;4227522;27;19923;-39
2023/03/21 07:10:32;;;;;;;;;;;;;;;;;;4210630;28;20418;-38
2023/03/21 07:12:40;;;;;;;;;;;;;;;;;;4219864;27;20271;-39
2023/03/21 07:14:59;;;;;;;;;;;;;;;;;;4210772;27;19970;-39
2023/03/21 07:17:00;;;;;;;;;;;;;;;;;;4189856;28;19969;-39
2023/03/21 07:19:01;;;;;;;;;;;;;;;;;;4213180;28;20143;-39
2023/03/21 07:21:03;;;;;;;;;;;;;;;;;;4192575;28;19927;-38
2023/03/21 07:23:03;;;;;;;;;;;;;;;;;;4212728;28;19950;-39
2023/03/21 07:25:06;;;;;;;;;;;;;;;;;;4222394;27;19953;-39
2023/03/21 07:27:12;;;;;;;;;;;;;;;;;;4211247;27;19961;-39
2023/03/21 07:29:14;;;;;;;;;;;;;;;;;;4221737;27;20050;-39
2023/03/21 07:31:15;;;;;;;;;;;;;;;;;;4221822;27;20798;-39
2023/03/21 07:33:16;;;;;;;;;;;;;;;;;;4230463;27;20672;-39
2023/03/21 07:35:18;;;;;;;;;;;;;;;;;;4208235;28;19923;-42
2023/03/21 07:37:19;;;;;;;;;;;;;;;;;;4219229;27;19919;-39
2023/03/21 07:39:22;;;;;;;;;;;;;;;;;;4208662;28;20314;-38
2023/03/21 07:41:23;;;;;;;;;;;;;;;;;;4226982;27;20370;-39
2023/03/21 07:43:25;;;;;;;;;;;;;;;;;;4215522;27;19915;-39
2023/03/21 07:45:27;;;;;;;;;;;;;;;;;;4216757;27;19919;-38
2023/03/21 07:47:28;;;;;;;;;;;;;;;;;;4234182;27;20406;-38
2023/03/21 07:49:29;;;;;;;;;;;;;;;;;;4213319;28;19924;-38
2023/03/21 07:51:30;;;;;;;;;;;;;;;;;;4203131;28;20387;-38
2023/03/21 07:53:32;;;;;;;;;;;;;;;;;;4223909;27;19923;-39
2023/03/21 07:55:36;;;;;;;;;;;;;;;;;;4226453;27;20344;-38
2023/03/21 07:57:37;;;;;;;;;;;;;;;;;;4217343;27;20876;-38
2023/03/21 07:59:38;;;;;;;;;;;;;;;;;;4212590;27;19927;-39
2023/03/21 08:01:38;;;;;;;;;;;;;;;;;;4196345;28;19939;-40
2023/03/21 08:03:40;;;;;;;;;;;;;;;;;;4220182;27;20323;-39
2023/03/21 08:05:41;;;;;;;;;;;;;;;;;;4223418;27;19924;-38
2023/03/21 08:07:42;;;;;;;;;;;;;;;;;;4227297;27;20275;-39
2023/03/21 08:09:43;;;;;;;;;;;;;;;;;;4227033;27;19926;-40
2023/03/21 08:11:44;;;;;;;;;;;;;;;;;;4220820;27;19999;-38
2023/03/21 08:13:46;;;;;;;;;;;;;;;;;;4220120;27;19923;-38
2023/03/21 08:15:47;;;;;;;;;;;;;;;;;;4219505;27;19996;-48
2023/03/21 08:17:48;;;;;;;;;;;;;;;;;;4200376;28;20390;-41
2023/03/21 08:19:49;;;;;;;;;;;;;;;;;;4221923;27;19923;-40
2023/03/21 08:21:51;;;;;;;;;;;;;;;;;;4224870;27;19931;-40
2023/03/21 08:23:52;;;;;;;;;;;;;;;;;;4222934;27;19927;-41
2023/03/21 08:25:53;;;;;;;;;;;;;;;;;;4218963;27;20752;-41
2023/03/21 08:27:54;;;;;;;;;;;;;;;;;;4223522;27;20118;-40
2023/03/21 08:29:55;;;;;;;;;;;;;;;;;;4222010;27;19964;-40
2023/03/21 08:31:56;;;;;;;;;;;;;;;;;;4222942;27;19995;-40
2023/03/21 08:33:57;;;;;;;;;;;;;;;;;;4221056;27;19984;-41
2023/03/21 08:35:59;;;;;;;;;;;;;;;;;;4218716;27;19923;-40
2023/03/21 08:38:00;;;;;;;;;;;;;;;;;;4228251;27;19923;-41
2023/03/21 08:40:01;;;;;;;;;;;;;;;;;;4227027;27;20528;-41
2023/03/21 08:42:02;;;;;;;;;;;;;;;;;;4211564;27;19969;-40
2023/03/21 08:44:03;;;;;;;;;;;;;;;;;;4223200;27;19981;-40
2023/03/21 08:46:04;;;;;;;;;;;;;;;;;;4221827;27;20011;-41
2023/03/21 08:48:05;;;;;;;;;;;;;;;;;;4222628;27;19931;-41
2023/03/21 08:50:06;;;;;;;;;;;;;;;;;;4186772;28;20648;-41
2023/03/21 08:52:08;;;;;;;;;;;;;;;;;;4223594;27;20447;-42
2023/03/21 08:54:09;;;;;;;;;;;;;;;;;;4220341;27;19924;-41
2023/03/21 08:56:11;;;;;;;;;;;;;;;;;;4224602;27;19950;-41
2023/03/21 08:58:12;;;;;;;;;;;;;;;;;;4220670;27;19923;-41
2023/03/21 09:00:13;;;;;;;;;;;;;;;;;;4200445;28;19946;-41
2023/03/21 09:02:15;;;;;;;;;;;;;;;;;;4209842;28;19923;-41
2023/03/21 09:04:17;;;;;;;;;;;;;;;;;;4216382;27;19991;-40
2023/03/21 09:06:18;;;;;;;;;;;;;;;;;;4220394;27;19919;-41
2023/03/21 09:08:22;;;;;;;;;;;;;;;;;;4211591;27;20457;-41
2023/03/21 09:10:23;;;;;;;;;;;;;;;;;;4215530;27;21286;-41
2023/03/21 09:12:25;;;;;;;;;;;;;;;;;;4219676;27;19919;-41
2023/03/21 09:14:26;;;;;;;;;;;;;;;;;;4218696;27;20515;-41
2023/03/21 09:16:27;;;;;;;;;;;;;;;;;;4220513;27;20374;-40
2023/03/21 09:18:44;;;;;;;;;;;;;;;;;;4219953;27;19969;-39
2023/03/21 09:20:46;;;;;;;;;;;;;;;;;;4221517;27;19926;-40
2023/03/21 09:22:47;;;;;;;;;;;;;;;;;;4219794;27;20018;-42
2023/03/21 09:24:49;;;;;;;;;;;;;;;;;;4224186;27;19995;-42
2023/03/21 09:26:50;;;;;;;;;;;;;;;;;;4218712;27;19976;-42
2023/03/21 09:28:52;;;;;;;;;;;;;;;;;;4218973;27;19931;-40
2023/03/21 09:30:54;;;;;;;;;;;;;;;;;;4220922;27;20386;-40
2023/03/21 09:32:55;;;;;;;;;;;;;;;;;;4219950;27;19930;-41
2023/03/21 09:34:56;;;;;;;;;;;;;;;;;;4217813;27;20287;-41
2023/03/21 09:36:57;;;;;;;;;;;;;;;;;;4217897;27;19930;-42
2023/03/21 09:38:58;;;;;;;;;;;;;;;;;;4219140;27;19931;-39
2023/03/21 09:40:59;;;;;;;;;;;;;;;;;;4213696;27;19915;-40
2023/03/21 09:43:00;;;;;;;;;;;;;;;;;;4218332;27;19923;-39
2023/03/21 09:45:04;;;;;;;;;;;;;;;;;;4216757;27;19967;-42
2023/03/21 09:47:05;;;;;;;;;;;;;;;;;;4214343;27;19991;-39
2023/03/21 09:49:08;;;;;;;;;;;;;;;;;;4221398;27;19923;-40
2023/03/21 09:51:10;;;;;;;;;;;;;;;;;;4219435;27;20728;-40
2023/03/21 09:53:11;;;;;;;;;;;;;;;;;;4207114;28;19978;-40
2023/03/21 09:55:17;;;;;;;;;;;;;;;;;;4222003;27;19968;-40
2023/03/21 09:57:19;;;;;;;;;;;;;;;;;;4210260;27;20493;-39
2023/03/21 09:59:20;;;;;;;;;;;;;;;;;;4198953;28;19931;-40
2023/03/21 10:01:26;;;;;;;;;;;;;;;;;;4195692;27;19989;-41
2023/03/21 10:03:27;;;;;;;;;;;;;;;;;;4206292;27;20799;-41
2023/03/21 10:05:28;;;;;;;;;;;;;;;;;;4204692;27;19924;-40
2023/03/21 10:07:29;;;;;;;;;;;;;;;;;;4207247;27;19999;-42
2023/03/21 10:09:31;;;;;;;;;;;;;;;;;;4190031;28;21161;-40
2023/03/21 10:11:32;;;;;;;;;;;;;;;;;;4203743;27;19923;-40
2023/03/21 10:13:33;;;;;;;;;;;;;;;;;;4207392;27;19924;-39
2023/03/21 10:15:34;;;;;;;;;;;;;;;;;;4209751;27;19923;-39
2023/03/21 10:17:39;;;;;;;;;;;;;;;;;;4199761;28;19923;-41
2023/03/21 10:19:45;;;;;;;;;;;;;;;;;;4209753;27;20655;-40
2023/03/21 10:21:46;;;;;;;;;;;;;;;;;;4210915;27;20443;-38
2023/03/21 10:23:47;;;;;;;;;;;;;;;;;;4212905;28;20004;-40
2023/03/21 10:25:48;;;;;;;;;;;;;;;;;;4199071;28;19954;-39
2023/03/21 10:27:51;;;;;;;;;;;;;;;;;;4184952;28;19924;-38
2023/03/21 10:29:52;;;;;;;;;;;;;;;;;;4174547;28;20787;-41
2023/03/21 10:31:53;;;;;;;;;;;;;;;;;;4180161;28;20423;-41
2023/03/21 10:33:54;;;;;;;;;;;;;;;;;;4180927;28;19924;-41
2023/03/21 10:35:55;;;;;;;;;;;;;;;;;;4182258;28;20573;-39
2023/03/21 10:37:56;;;;;;;;;;;;;;;;;;4189454;28;20349;-41
2023/03/21 10:39:57;;;;;;;;;;;;;;;;;;4184374;28;19977;-40
2023/03/21 10:41:58;;;;;;;;;;;;;;;;;;4186260;28;20617;-39
2023/03/21 10:43:59;;;;;;;;;;;;;;;;;;4170155;28;19920;-40
2023/03/21 10:46:00;;;;;;;;;;;;;;;;;;4182242;28;19934;-40
2023/03/21 10:48:02;;;;;;;;;;;;;;;;;;4184319;28;20362;-39
2023/03/21 10:50:03;;;;;;;;;;;;;;;;;;4188156;28;19951;-39
2023/03/21 10:52:04;;;;;;;;;;;;;;;;;;4169658;28;19925;-41
2023/03/21 10:54:05;;;;;;;;;;;;;;;;;;4184147;28;20351;-40
2023/03/21 10:56:06;;;;;;;;;;;;;;;;;;4181075;28;19929;-41
2023/03/21 10:58:09;;;;;;;;;;;;;;;;;;4192425;28;19920;-38
2023/03/21 11:00:15;;;;;;;;;;;;;;;;;;4188032;28;19975;-39
2023/03/21 11:02:16;;;;;;;;;;;;;;;;;;4184086;28;19963;-42
2023/03/21 11:04:18;;;;;;;;;;;;;;;;;;4188822;28;20421;-39
2023/03/21 11:06:19;;;;;;;;;;;;;;;;;;4185480;28;19920;-40
2023/03/21 11:08:20;;;;;;;;;;;;;;;;;;4187104;28;19916;-43
2023/03/21 11:10:22;;;;;;;;;;;;;;;;;;4177903;28;20453;-40
2023/03/21 11:12:23;;;;;;;;;;;;;;;;;;4172076;28;19962;-40
2023/03/21 11:14:24;;;;;;;;;;;;;;;;;;4188006;28;19924;-41
2023/03/21 11:16:26;;;;;;;;;;;;;;;;;;4179144;28;19970;-40
2023/03/21 11:18:27;;;;;;;;;;;;;;;;;;4177811;28;20604;-41
2023/03/21 11:20:28;;;;;;;;;;;;;;;;;;4167908;28;19959;-39
2023/03/21 11:22:29;;;;;;;;;;;;;;;;;;4171116;28;19924;-41
2023/03/21 11:24:30;;;;;;;;;;;;;;;;;;4171386;28;20056;-40
2023/03/21 11:26:31;;;;;;;;;;;;;;;;;;4191836;27;20036;-40
2023/03/21 11:28:33;;;;;;;;;;;;;;;;;;4193614;28;19931;-42
2023/03/21 11:30:34;;;;;;;;;;;;;;;;;;4183677;28;20584;-40
2023/03/21 11:32:36;;;;;;;;;;;;;;;;;;4174682;27;21046;-39
2023/03/21 11:34:36;;;;;;;;;;;;;;;;;;4191832;27;19931;-38
2023/03/21 11:36:38;;;;;;;;;;;;;;;;;;4194422;28;19919;-38
2023/03/21 11:38:39;;;;;;;;;;;;;;;;;;4196334;28;19981;-39
2023/03/21 11:40:40;;;;;;;;;;;;;;;;;;4196112;28;19968;-39
2023/03/21 11:42:41;;;;;;;;;;;;;;;;;;4197094;28;19931;-39
2023/03/21 11:44:42;;;;;;;;;;;;;;;;;;4199282;28;19972;-38
2023/03/21 11:46:43;;;;;;;;;;;;;;;;;;4176330;28;20023;-39
2023/03/21 11:48:45;;;;;;;;;;;;;;;;;;4198881;28;19931;-39
2023/03/21 11:50:46;;;;;;;;;;;;;;;;;;4197291;28;19924;-39
2023/03/21 11:52:47;;;;;;;;;;;;;;;;;;4192587;28;19926;-39
2023/03/21 11:54:49;;;;;;;;;;;;;;;;;;4186776;28;19957;-39
2023/03/21 11:56:49;;;;;;;;;;;;;;;;;;4198342;28;19928;-40
2023/03/21 11:58:51;;;;;;;;;;;;;;;;;;4200441;28;19927;-41
2023/03/21 12:00:53;;;;;;;;;;;;;;;;;;4182837;28;19959;-41
2023/03/21 12:02:54;;;;;;;;;;;;;;;;;;4194656;27;19928;-41
2023/03/21 12:04:55;;;;;;;;;;;;;;;;;;4194556;28;20344;-43
2023/03/21 12:09:34;;;;;;;3.00;0.20;;;;;;;;;;4170587;27;20718;-42
2023/03/21 12:11:50;;;;;;;0.35;0.10;;;;;;;;;;4156465;28;20053;-43
2023/03/21 12:13:58;;;;;;;1.17;0.20;;;;;;;;;;4154222;28;20516;-45
2023/03/21 12:16:00;;;;;;;4.05;0.25;;;;;;;;;;4154115;28;20068;-45
2023/03/21 12:18:17;;;;;;;3.75;0.45;;;;;;;;;;4152210;28;20057;-45
2023/03/21 12:20:45;;;;;;;1.13;0.30;;;;;;;;;;4153158;28;20692;-44
2023/03/21 12:23:02;;;;;;;1.77;0.40;;;;;;;;;;4154891;28;20061;-41
2023/03/21 12:25:26;;;;;;;1.00;0.30;;;;;;;;;;4153247;28;21995;-40
2023/03/21 12:27:56;;;;;;;1.85;0.50;;;;;;;;;;4131959;28;20058;-44
2023/03/21 12:30:04;;;;;;;1.38;0.30;;;;;;;;;;4146858;28;20807;-45
2023/03/21 12:32:18;;;;;;;1.10;0.20;;;;;;;;;;4127129;28;20139;-46
2023/03/21 12:34:32;;;;;;;3.70;0.55;;;;;;;;;;4141139;28;20053;-43
2023/03/21 12:36:59;;;;;;;0.68;0.20;;;;;;;;;;4141015;28;20083;-45
2023/03/21 12:39:16;;;;;;;2.15;0.30;;;;;;;;;;4146217;28;20416;-46
2023/03/21 12:41:34;;;;;;;1.65;0.20;;;;;;;;;;4133043;28;20647;-51
2023/03/21 12:44:02;;;;;;;0.93;0.30;;;;;;;;;;4144332;28;20053;-48
2023/03/21 12:46:10;;;;;;;0.45;0.20;;;;;;;;;;4144766;28;20071;-46
2023/03/21 12:48:53;;;;;;;1.13;0.30;;;;;;;;;;4151752;28;20098;-47
2023/03/21 12:50:56;;;;;;;0.40;0.30;;;;;;;;;;4147153;28;20504;-45
2023/03/21 12:53:02;;;;;;;0.50;0.20;;;;;;;;;;4130573;28;21408;-43
2023/03/21 12:55:20;;;;;;;4.43;0.32;;;;;;;;;;4167581;28;20052;-45
2023/03/21 12:57:26;;;;;;;2.13;0.57;;;;;;;;;;4136249;28;20151;-46
2023/03/21 12:59:50;;;;;;;0.63;0.10;;;;;;;;;;4132871;28;20053;-47
2023/03/21 13:01:55;;;;;;;0.15;0.13;;;;;;;;;;4126434;28;20119;-48
2023/03/21 13:04:24;;;;;;;0.85;0.30;;;;;;;;;;4124334;28;20384;-47
2023/03/21 13:06:27;;;;;;;0.43;0.22;;;;;;;;;;4143459;28;20263;-49
2023/03/21 13:08:36;;;;;;;1.90;0.25;;;;;;;;;;4141489;28;20119;-47
2023/03/21 13:10:40;;;;;;;2.15;0.20;;;;;;;;;;4126308;28;20748;-48
2023/03/21 13:12:44;;;;;;;0.98;0.40;;;;;;;;;;4140247;28;20139;-45
2023/03/21 13:15:14;;;;;;;2.17;0.40;;;;;;;;;;4137868;28;20742;-42
2023/03/21 13:17:28;;;;;;;0.38;0.28;;;;;;;;;;4168862;28;20146;-44
2023/03/21 13:19:46;;;;;;;3.10;0.28;;;;;;;;;;4145149;28;20119;-42
2023/03/21 13:22:05;;;;;;;2.97;0.20;;;;;;;;;;4134461;28;20065;-46
2023/03/21 13:24:22;;;;;;;0.43;0.20;;;;;;;;;;4127154;28;20086;-44
2023/03/21 13:26:32;;;;;;;2.85;0.70;;;;;;;;;;4134520;28;20061;-42
2023/03/21 13:28:35;;;;;;;6.18;0.32;;;;;;;;;;4123345;28;20060;-46
2023/03/21 13:30:36;;;;;;;0.93;0.20;;;;;;;;;;4115918;28;20544;-46
2023/03/21 13:32:42;;;;;;;3.60;0.20;;;;;;;;;;4112613;28;20057;-45
2023/03/21 13:34:43;;;;;;;1.27;0.55;;;;;;;;;;4128578;28;20098;-47
2023/03/21 13:36:47;;;;;;;0.57;0.10;;;;;;;;;;4151432;28;20053;-48
2023/03/21 13:38:50;;;;;;;1.65;0.40;;;;;;;;;;4137872;28;20049;-47
2023/03/21 13:41:13;;;;;;;0.95;0.20;;;;;;;;;;4131339;28;20057;-44
2023/03/21 13:43:49;;;;;;;0.52;0.20;;;;;;;;;;4121347;28;20834;-48
2023/03/21 13:45:52;;;;;;;2.42;0.40;;;;;;;;;;4114445;28;20112;-47
2023/03/21 13:47:56;;;;;;;2.38;0.20;;;;;;;;;;4125799;28;20128;-45
2023/03/21 13:50:16;;;;;;;2.75;0.40;;;;;;;;;;4120590;28;20057;-51
2023/03/21 13:52:26;;;;;;;0.90;0.17;;;;;;;;;;4134897;28;20213;-47
2023/03/21 13:54:43;;;;;;;;;;;;;;;;;;4129617;28;20064;-45
2023/03/21 13:56:45;;;;;;;0.38;0.10;;;;;;;;;;4139297;28;19929;-48